sensor_id;sensor_type;location;lat;lon;timestamp;temperature;humidity
20594;DHT22;10455;48.732;10.266;2023-03-12T00:03:08;-4.00;99.90
20594;DHT22;10455;48.732;10.266;2023-03-12T00:08:12;-4.10;99.90
20594;DHT22;10455;48.732;10.266;2023-03-12T00:13:14;-4.10;99.90
20594;DHT22;10455;48.732;10.266;2023-03-12T00:18:15;-4.20;99.90
20594;DHT22;10455;48.732;10.266;2023-03-12T00:23:19;-4.30;99.90
20594;DHT22;10455;48.732;10.266;2023-03-12T00:28:21;-4.50;99.90
20594;DHT22;10455;48.732;10.266;2023-03-12T00:33:23;-4.70;99.90
20594;DHT22;10455;48.732;10.266;2023-03-12T00:38:27;-4.60;99.90
20594;DHT22;10455;48.732;10.266;2023-03-12T00:43:28;-4.60;99.90
20594;DHT22;10455;48.732;10.266;2023-03-12T00:48:31;-4.70;99.90
20594;DHT22;10455;48.732;10.266;2023-03-12T00:53:34;-4.70;99.90
20594;DHT22;10455;48.732;10.266;2023-03-12T00:58:36;-4.60;99.90
20594;DHT22;10455;48.732;10.266;2023-03-12T01:03:38;-4.60;99.90
20594;DHT22;10455;48.732;10.266;2023-03-12T01:08:42;-4.50;99.90
20594;DHT22;10455;48.732;10.266;2023-03-12T01:13:44;-4.50;99.90
20594;DHT22;10455;48.732;10.266;2023-03-12T01:18:46;-4.60;99.90
20594;DHT22;10455;48.732;10.266;2023-03-12T01:23:49;-4.70;99.90
20594;DHT22;10455;48.732;10.266;2023-03-12T01:28:51;-4.70;99.90
20594;DHT22;10455;48.732;10.266;2023-03-12T01:33:53;-4.70;99.90
20594;DHT22;10455;48.732;10.266;2023-03-12T01:38:58;-4.80;99.90
20594;DHT22;10455;48.732;10.266;2023-03-12T01:44:01;-4.80;99.90
20594;DHT22;10455;48.732;10.266;2023-03-12T01:49:06;-4.80;99.90
20594;DHT22;10455;48.732;10.266;2023-03-12T01:54:13;-4.80;99.90
20594;DHT22;10455;48.732;10.266;2023-03-12T01:59:19;-4.70;99.90
20594;DHT22;10455;48.732;10.266;2023-03-12T02:04:25;-4.70;99.90
20594;DHT22;10455;48.732;10.266;2023-03-12T02:09:30;-4.80;99.90
20594;DHT22;10455;48.732;10.266;2023-03-12T02:14:33;-4.70;99.90
20594;DHT22;10455;48.732;10.266;2023-03-12T02:19:41;-4.50;99.90
20594;DHT22;10455;48.732;10.266;2023-03-12T02:24:51;-4.10;99.90
20594;DHT22;10455;48.732;10.266;2023-03-12T02:29:55;-3.80;99.90
20594;DHT22;10455;48.732;10.266;2023-03-12T02:34:59;-3.50;99.90
20594;DHT22;10455;48.732;10.266;2023-03-12T02:40:06;-3.30;99.90
20594;DHT22;10455;48.732;10.266;2023-03-12T02:45:13;-3.00;99.90
20594;DHT22;10455;48.732;10.266;2023-03-12T02:50:15;-2.90;99.90
20594;DHT22;10455;48.732;10.266;2023-03-12T02:55:17;-2.70;99.90
20594;DHT22;10455;48.732;10.266;2023-03-12T03:00:21;-2.70;99.90
20594;DHT22;10455;48.732;10.266;2023-03-12T03:05:23;-2.60;99.90
20594;DHT22;10455;48.732;10.266;2023-03-12T03:10:25;-2.50;99.90
20594;DHT22;10455;48.732;10.266;2023-03-12T03:15:28;-2.50;99.90
20594;DHT22;10455;48.732;10.266;2023-03-12T03:20:30;-2.50;99.90
20594;DHT22;10455;48.732;10.266;2023-03-12T03:25:32;-2.40;99.90
20594;DHT22;10455;48.732;10.266;2023-03-12T03:30:36;-2.40;99.90
20594;DHT22;10455;48.732;10.266;2023-03-12T03:35:38;-2.50;99.90
20594;DHT22;10455;48.732;10.266;2023-03-12T03:40:40;-2.40;99.90
20594;DHT22;10455;48.732;10.266;2023-03-12T03:45:43;-2.40;99.90
20594;DHT22;10455;48.732;10.266;2023-03-12T03:50:45;-2.30;99.90
20594;DHT22;10455;48.732;10.266;2023-03-12T03:55:47;-2.30;99.90
20594;DHT22;10455;48.732;10.266;2023-03-12T04:00:50;-2.30;99.90
20594;DHT22;10455;48.732;10.266;2023-03-12T04:05:56;-2.30;99.90
20594;DHT22;10455;48.732;10.266;2023-03-12T04:10:59;-2.30;99.90
20594;DHT22;10455;48.732;10.266;2023-03-12T04:16:08;-2.30;99.90
20594;DHT22;10455;48.732;10.266;2023-03-12T04:21:11;-2.20;99.90
20594;DHT22;10455;48.732;10.266;2023-03-12T04:26:13;-2.00;99.90
20594;DHT22;10455;48.732;10.266;2023-03-12T04:31:18;-1.90;99.90
20594;DHT22;10455;48.732;10.266;2023-03-12T04:36:20;-1.70;99.90
20594;DHT22;10455;48.732;10.266;2023-03-12T04:41:22;-1.60;99.90
20594;DHT22;10455;48.732;10.266;2023-03-12T04:46:25;-1.80;99.90
20594;DHT22;10455;48.732;10.266;2023-03-12T04:51:27;-2.10;99.90
20594;DHT22;10455;48.732;10.266;2023-03-12T04:56:29;-2.20;99.90
20594;DHT22;10455;48.732;10.266;2023-03-12T05:01:35;-2.30;99.90
20594;DHT22;10455;48.732;10.266;2023-03-12T05:06:37;-2.20;99.90
20594;DHT22;10455;48.732;10.266;2023-03-12T05:11:39;-1.90;99.90
20594;DHT22;10455;48.732;10.266;2023-03-12T05:16:42;-1.60;99.90
20594;DHT22;10455;48.732;10.266;2023-03-12T05:21:44;-1.60;99.90
20594;DHT22;10455;48.732;10.266;2023-03-12T05:26:46;-1.30;99.90
20594;DHT22;10455;48.732;10.266;2023-03-12T05:31:49;-1.20;99.90
20594;DHT22;10455;48.732;10.266;2023-03-12T05:36:51;-1.00;99.90
20594;DHT22;10455;48.732;10.266;2023-03-12T05:41:53;-0.90;99.90
20594;DHT22;10455;48.732;10.266;2023-03-12T05:46:58;-1.00;99.90
20594;DHT22;10455;48.732;10.266;2023-03-12T05:52:00;-0.70;99.90
20594;DHT22;10455;48.732;10.266;2023-03-12T05:57:01;-0.70;99.90
20594;DHT22;10455;48.732;10.266;2023-03-12T06:02:05;-0.40;99.90
20594;DHT22;10455;48.732;10.266;2023-03-12T06:07:07;-0.20;99.90
20594;DHT22;10455;48.732;10.266;2023-03-12T06:12:09;0.10;99.90
20594;DHT22;10455;48.732;10.266;2023-03-12T06:17:12;0.20;99.90
20594;DHT22;10455;48.732;10.266;2023-03-12T06:22:14;0.40;99.90
20594;DHT22;10455;48.732;10.266;2023-03-12T06:27:16;0.70;99.90
20594;DHT22;10455;48.732;10.266;2023-03-12T06:32:20;0.80;99.90
20594;DHT22;10455;48.732;10.266;2023-03-12T06:37:22;1.10;99.90
20594;DHT22;10455;48.732;10.266;2023-03-12T06:42:24;1.20;99.90
20594;DHT22;10455;48.732;10.266;2023-03-12T06:47:28;1.30;99.90
20594;DHT22;10455;48.732;10.266;2023-03-12T06:52:30;1.40;99.90
20594;DHT22;10455;48.732;10.266;2023-03-12T06:57:32;1.70;99.90
20594;DHT22;10455;48.732;10.266;2023-03-12T07:02:35;1.90;99.90
20594;DHT22;10455;48.732;10.266;2023-03-12T07:07:37;2.00;99.90
20594;DHT22;10455;48.732;10.266;2023-03-12T07:12:39;2.50;99.90
20594;DHT22;10455;48.732;10.266;2023-03-12T07:17:43;2.80;99.90
20594;DHT22;10455;48.732;10.266;2023-03-12T07:22:45;3.20;99.90
20594;DHT22;10455;48.732;10.266;2023-03-12T07:27:47;3.30;99.90
20594;DHT22;10455;48.732;10.266;2023-03-12T07:32:50;3.40;99.90
20594;DHT22;10455;48.732;10.266;2023-03-12T07:37:52;3.10;99.90
20594;DHT22;10455;48.732;10.266;2023-03-12T07:42:54;3.10;99.90
20594;DHT22;10455;48.732;10.266;2023-03-12T07:47:57;3.50;99.90
20594;DHT22;10455;48.732;10.266;2023-03-12T07:52:59;3.70;99.90
20594;DHT22;10455;48.732;10.266;2023-03-12T07:58:01;3.20;99.90
20594;DHT22;10455;48.732;10.266;2023-03-12T08:03:05;3.10;99.90
20594;DHT22;10455;48.732;10.266;2023-03-12T08:08:07;3.30;99.90
20594;DHT22;10455;48.732;10.266;2023-03-12T08:13:09;3.30;99.90
20594;DHT22;10455;48.732;10.266;2023-03-12T08:18:12;3.50;99.90
20594;DHT22;10455;48.732;10.266;2023-03-12T08:23:14;3.80;99.90
20594;DHT22;10455;48.732;10.266;2023-03-12T08:28:17;3.70;99.90
20594;DHT22;10455;48.732;10.266;2023-03-12T08:33:21;4.20;99.90
20594;DHT22;10455;48.732;10.266;2023-03-12T08:38:23;4.20;99.90
20594;DHT22;10455;48.732;10.266;2023-03-12T08:43:26;4.90;99.90
20594;DHT22;10455;48.732;10.266;2023-03-12T08:48:31;5.30;99.90
20594;DHT22;10455;48.732;10.266;2023-03-12T08:53:35;5.70;99.90
20594;DHT22;10455;48.732;10.266;2023-03-12T08:58:37;5.30;99.90
20594;DHT22;10455;48.732;10.266;2023-03-12T09:03:41;5.00;99.90
20594;DHT22;10455;48.732;10.266;2023-03-12T09:08:43;5.40;99.90
20594;DHT22;10455;48.732;10.266;2023-03-12T09:13:45;5.10;99.90
20594;DHT22;10455;48.732;10.266;2023-03-12T09:18:49;5.10;99.90
20594;DHT22;10455;48.732;10.266;2023-03-12T09:23:51;5.10;99.90
20594;DHT22;10455;48.732;10.266;2023-03-12T09:28:53;5.00;99.90
20594;DHT22;10455;48.732;10.266;2023-03-12T09:33:57;4.80;99.90
20594;DHT22;10455;48.732;10.266;2023-03-12T09:38:59;4.50;99.90
20594;DHT22;10455;48.732;10.266;2023-03-12T09:44:06;4.70;99.90
20594;DHT22;10455;48.732;10.266;2023-03-12T09:49:17;5.50;99.90
20594;DHT22;10455;48.732;10.266;2023-03-12T09:54:25;6.10;99.90
20594;DHT22;10455;48.732;10.266;2023-03-12T09:59:29;6.20;99.90
20594;DHT22;10455;48.732;10.266;2023-03-12T10:04:39;6.00;99.90
20594;DHT22;10455;48.732;10.266;2023-03-12T10:10:07;7.00;99.90
20594;DHT22;10455;48.732;10.266;2023-03-12T10:15:21;6.40;99.90
20594;DHT22;10455;48.732;10.266;2023-03-12T10:20:56;6.00;99.90
20594;DHT22;10455;48.732;10.266;2023-03-12T10:26:06;5.20;99.90
20594;DHT22;10455;48.732;10.266;2023-03-12T10:31:15;4.80;99.90
20594;DHT22;10455;48.732;10.266;2023-03-12T10:36:24;5.20;99.90
20594;DHT22;10455;48.732;10.266;2023-03-12T10:41:29;5.00;99.90
20594;DHT22;10455;48.732;10.266;2023-03-12T10:52:14;6.50;99.90
20594;DHT22;10455;48.732;10.266;2023-03-12T10:57:18;6.80;99.90
20594;DHT22;10455;48.732;10.266;2023-03-12T11:02:32;6.40;99.90
20594;DHT22;10455;48.732;10.266;2023-03-12T11:07:35;5.70;99.90
20594;DHT22;10455;48.732;10.266;2023-03-12T11:12:38;5.30;99.90
20594;DHT22;10455;48.732;10.266;2023-03-12T11:17:40;5.50;99.90
20594;DHT22;10455;48.732;10.266;2023-03-12T11:22:43;5.70;99.90
20594;DHT22;10455;48.732;10.266;2023-03-12T11:27:50;5.50;99.90
20594;DHT22;10455;48.732;10.266;2023-03-12T11:32:53;5.30;99.90
20594;DHT22;10455;48.732;10.266;2023-03-12T11:38:02;5.30;99.90
20594;DHT22;10455;48.732;10.266;2023-03-12T11:43:21;5.20;99.90
20594;DHT22;10455;48.732;10.266;2023-03-12T11:48:33;5.30;99.90
20594;DHT22;10455;48.732;10.266;2023-03-12T11:53:55;5.70;99.90
20594;DHT22;10455;48.732;10.266;2023-03-12T11:59:11;6.00;99.90
20594;DHT22;10455;48.732;10.266;2023-03-12T12:04:38;6.10;99.90
20594;DHT22;10455;48.732;10.266;2023-03-12T12:09:48;6.40;99.90
20594;DHT22;10455;48.732;10.266;2023-03-12T12:15:01;6.70;99.90
20594;DHT22;10455;48.732;10.266;2023-03-12T12:20:18;7.00;99.90
20594;DHT22;10455;48.732;10.266;2023-03-12T12:25:29;7.50;99.90
20594;DHT22;10455;48.732;10.266;2023-03-12T12:30:46;7.00;99.90
20594;DHT22;10455;48.732;10.266;2023-03-12T12:36:03;6.70;99.90
20594;DHT22;10455;48.732;10.266;2023-03-12T12:41:14;6.60;99.90
20594;DHT22;10455;48.732;10.266;2023-03-12T12:46:19;6.70;99.90
20594;DHT22;10455;48.732;10.266;2023-03-12T12:51:26;7.60;99.90
20594;DHT22;10455;48.732;10.266;2023-03-12T12:56:37;9.00;99.90
20594;DHT22;10455;48.732;10.266;2023-03-12T13:01:42;9.70;99.90
20594;DHT22;10455;48.732;10.266;2023-03-12T13:06:55;12.00;99.90
20594;DHT22;10455;48.732;10.266;2023-03-12T13:12:06;11.90;99.90
20594;DHT22;10455;48.732;10.266;2023-03-12T13:17:21;11.90;99.90
20594;DHT22;10455;48.732;10.266;2023-03-12T13:22:39;11.50;99.90
20594;DHT22;10455;48.732;10.266;2023-03-12T13:27:45;11.30;99.90
20594;DHT22;10455;48.732;10.266;2023-03-12T13:33:11;10.70;99.90
20594;DHT22;10455;48.732;10.266;2023-03-12T13:38:33;10.20;99.90
20594;DHT22;10455;48.732;10.266;2023-03-12T13:43:50;10.70;99.90
20594;DHT22;10455;48.732;10.266;2023-03-12T13:48:57;10.40;99.90
20594;DHT22;10455;48.732;10.266;2023-03-12T13:54:02;9.80;99.90
20594;DHT22;10455;48.732;10.266;2023-03-12T13:59:06;9.60;99.90
20594;DHT22;10455;48.732;10.266;2023-03-12T14:04:17;11.10;99.90
20594;DHT22;10455;48.732;10.266;2023-03-12T14:09:25;11.80;99.90
20594;DHT22;10455;48.732;10.266;2023-03-12T14:14:53;11.40;99.90
20594;DHT22;10455;48.732;10.266;2023-03-12T14:20:00;11.00;99.90
20594;DHT22;10455;48.732;10.266;2023-03-12T14:25:12;10.40;99.90
20594;DHT22;10455;48.732;10.266;2023-03-12T14:30:20;10.30;99.90
20594;DHT22;10455;48.732;10.266;2023-03-12T14:35:24;10.90;99.90
20594;DHT22;10455;48.732;10.266;2023-03-12T14:40:35;11.30;99.90
20594;DHT22;10455;48.732;10.266;2023-03-12T14:45:40;11.10;99.90
20594;DHT22;10455;48.732;10.266;2023-03-12T14:50:43;10.70;99.90
20594;DHT22;10455;48.732;10.266;2023-03-12T14:55:46;10.20;99.90
20594;DHT22;10455;48.732;10.266;2023-03-12T15:00:56;9.90;99.90
20594;DHT22;10455;48.732;10.266;2023-03-12T15:05:58;9.60;99.90
20594;DHT22;10455;48.732;10.266;2023-03-12T15:11:00;9.00;99.90
20594;DHT22;10455;48.732;10.266;2023-03-12T15:16:05;9.00;99.90
20594;DHT22;10455;48.732;10.266;2023-03-12T15:21:07;9.30;99.90
20594;DHT22;10455;48.732;10.266;2023-03-12T15:26:14;9.30;99.90
20594;DHT22;10455;48.732;10.266;2023-03-12T15:31:19;9.70;99.90
20594;DHT22;10455;48.732;10.266;2023-03-12T15:36:26;10.50;99.90
20594;DHT22;10455;48.732;10.266;2023-03-12T15:41:35;10.20;99.90
20594;DHT22;10455;48.732;10.266;2023-03-12T15:46:46;10.00;99.90
20594;DHT22;10455;48.732;10.266;2023-03-12T15:51:58;9.90;99.90
20594;DHT22;10455;48.732;10.266;2023-03-12T15:57:21;9.80;99.90
20594;DHT22;10455;48.732;10.266;2023-03-12T16:02:35;9.70;99.90
20594;DHT22;10455;48.732;10.266;2023-03-12T16:07:37;9.70;99.90
20594;DHT22;10455;48.732;10.266;2023-03-12T16:12:40;9.60;99.90
20594;DHT22;10455;48.732;10.266;2023-03-12T16:17:43;9.50;99.90
20594;DHT22;10455;48.732;10.266;2023-03-12T16:22:46;9.40;99.90
20594;DHT22;10455;48.732;10.266;2023-03-12T16:27:50;9.40;99.90
20594;DHT22;10455;48.732;10.266;2023-03-12T16:32:54;9.40;99.90
20594;DHT22;10455;48.732;10.266;2023-03-12T16:37:56;9.30;99.90
20594;DHT22;10455;48.732;10.266;2023-03-12T16:42:58;9.10;99.90
20594;DHT22;10455;48.732;10.266;2023-03-12T16:48:04;8.90;99.90
20594;DHT22;10455;48.732;10.266;2023-03-12T16:53:09;8.60;99.90
20594;DHT22;10455;48.732;10.266;2023-03-12T16:58:13;8.50;99.90
20594;DHT22;10455;48.732;10.266;2023-03-12T17:03:24;8.30;99.90
20594;DHT22;10455;48.732;10.266;2023-03-12T17:08:27;8.30;99.90
20594;DHT22;10455;48.732;10.266;2023-03-12T17:13:29;8.10;99.90
20594;DHT22;10455;48.732;10.266;2023-03-12T17:18:32;7.80;99.90
20594;DHT22;10455;48.732;10.266;2023-03-12T17:23:34;7.70;99.90
20594;DHT22;10455;48.732;10.266;2023-03-12T17:28:36;7.50;99.90
20594;DHT22;10455;48.732;10.266;2023-03-12T17:33:39;7.20;99.90
20594;DHT22;10455;48.732;10.266;2023-03-12T17:38:42;7.30;99.90
20594;DHT22;10455;48.732;10.266;2023-03-12T17:43:44;7.20;99.90
20594;DHT22;10455;48.732;10.266;2023-03-12T17:48:47;7.20;99.90
20594;DHT22;10455;48.732;10.266;2023-03-12T17:53:49;7.10;99.90
20594;DHT22;10455;48.732;10.266;2023-03-12T17:58:51;7.10;99.90
20594;DHT22;10455;48.732;10.266;2023-03-12T18:03:54;7.10;99.90
20594;DHT22;10455;48.732;10.266;2023-03-12T18:08:57;7.10;99.90
20594;DHT22;10455;48.732;10.266;2023-03-12T18:13:59;7.10;99.90
20594;DHT22;10455;48.732;10.266;2023-03-12T18:19:02;7.10;99.90
20594;DHT22;10455;48.732;10.266;2023-03-12T18:24:05;7.10;99.90
20594;DHT22;10455;48.732;10.266;2023-03-12T18:29:07;7.10;99.90
20594;DHT22;10455;48.732;10.266;2023-03-12T18:34:10;7.10;99.90
20594;DHT22;10455;48.732;10.266;2023-03-12T18:39:12;7.20;99.90
20594;DHT22;10455;48.732;10.266;2023-03-12T18:44:14;7.30;99.90
20594;DHT22;10455;48.732;10.266;2023-03-12T18:49:18;7.30;99.90
20594;DHT22;10455;48.732;10.266;2023-03-12T18:54:20;7.20;99.90
20594;DHT22;10455;48.732;10.266;2023-03-12T18:59:22;7.00;99.90
20594;DHT22;10455;48.732;10.266;2023-03-12T19:04:25;6.90;99.90
20594;DHT22;10455;48.732;10.266;2023-03-12T19:09:27;6.70;99.90
20594;DHT22;10455;48.732;10.266;2023-03-12T19:14:29;6.60;99.90
20594;DHT22;10455;48.732;10.266;2023-03-12T19:19:32;6.70;99.90
20594;DHT22;10455;48.732;10.266;2023-03-12T19:24:34;6.90;99.90
20594;DHT22;10455;48.732;10.266;2023-03-12T19:29:36;7.20;99.90
20594;DHT22;10455;48.732;10.266;2023-03-12T19:34:39;7.30;99.90
20594;DHT22;10455;48.732;10.266;2023-03-12T19:39:41;7.20;99.90
20594;DHT22;10455;48.732;10.266;2023-03-12T19:44:43;7.30;99.90
20594;DHT22;10455;48.732;10.266;2023-03-12T19:49:47;7.50;99.90
20594;DHT22;10455;48.732;10.266;2023-03-12T19:54:49;7.40;99.90
20594;DHT22;10455;48.732;10.266;2023-03-12T19:59:50;7.40;99.90
20594;DHT22;10455;48.732;10.266;2023-03-12T20:04:54;7.30;99.90
20594;DHT22;10455;48.732;10.266;2023-03-12T20:09:56;7.40;99.90
20594;DHT22;10455;48.732;10.266;2023-03-12T20:14:57;7.50;99.90
20594;DHT22;10455;48.732;10.266;2023-03-12T20:20:01;7.70;99.90
20594;DHT22;10455;48.732;10.266;2023-03-12T20:25:06;7.60;99.90
20594;DHT22;10455;48.732;10.266;2023-03-12T20:30:10;7.60;99.90
20594;DHT22;10455;48.732;10.266;2023-03-12T20:35:14;7.40;99.90
20594;DHT22;10455;48.732;10.266;2023-03-12T20:40:16;7.20;99.90
20594;DHT22;10455;48.732;10.266;2023-03-12T20:45:18;7.00;99.90
20594;DHT22;10455;48.732;10.266;2023-03-12T20:50:22;6.90;99.90
20594;DHT22;10455;48.732;10.266;2023-03-12T20:55:24;6.90;99.90
20594;DHT22;10455;48.732;10.266;2023-03-12T21:00:26;6.80;99.90
20594;DHT22;10455;48.732;10.266;2023-03-12T21:05:29;6.80;99.90
20594;DHT22;10455;48.732;10.266;2023-03-12T21:10:34;6.60;99.90
20594;DHT22;10455;48.732;10.266;2023-03-12T21:15:36;6.60;99.90
20594;DHT22;10455;48.732;10.266;2023-03-12T21:20:40;6.60;99.90
20594;DHT22;10455;48.732;10.266;2023-03-12T21:25:42;6.60;99.90
20594;DHT22;10455;48.732;10.266;2023-03-12T21:30:44;6.60;99.90
20594;DHT22;10455;48.732;10.266;2023-03-12T21:35:47;6.60;99.90
20594;DHT22;10455;48.732;10.266;2023-03-12T21:40:50;6.50;99.90
20594;DHT22;10455;48.732;10.266;2023-03-12T21:45:53;6.40;99.90
20594;DHT22;10455;48.732;10.266;2023-03-12T21:51:00;6.50;99.90
20594;DHT22;10455;48.732;10.266;2023-03-12T21:56:03;6.50;99.90
20594;DHT22;10455;48.732;10.266;2023-03-12T22:01:07;6.50;99.90
20594;DHT22;10455;48.732;10.266;2023-03-12T22:06:11;6.50;99.90
20594;DHT22;10455;48.732;10.266;2023-03-12T22:11:15;6.60;99.90
20594;DHT22;10455;48.732;10.266;2023-03-12T22:16:17;6.70;99.90
20594;DHT22;10455;48.732;10.266;2023-03-12T22:21:21;6.60;99.90
20594;DHT22;10455;48.732;10.266;2023-03-12T22:26:24;6.50;99.90
20594;DHT22;10455;48.732;10.266;2023-03-12T22:31:27;6.60;99.90
20594;DHT22;10455;48.732;10.266;2023-03-12T22:36:30;6.60;99.90
20594;DHT22;10455;48.732;10.266;2023-03-12T22:41:33;6.70;99.90
20594;DHT22;10455;48.732;10.266;2023-03-12T22:46:35;6.70;99.90
20594;DHT22;10455;48.732;10.266;2023-03-12T22:51:38;6.70;99.90
20594;DHT22;10455;48.732;10.266;2023-03-12T22:56:40;6.80;99.90
20594;DHT22;10455;48.732;10.266;2023-03-12T23:01:42;6.80;99.90
20594;DHT22;10455;48.732;10.266;2023-03-12T23:06:45;6.80;99.90
20594;DHT22;10455;48.732;10.266;2023-03-12T23:11:47;6.80;99.90
20594;DHT22;10455;48.732;10.266;2023-03-12T23:16:49;6.70;99.90
20594;DHT22;10455;48.732;10.266;2023-03-12T23:21:52;6.70;99.90
20594;DHT22;10455;48.732;10.266;2023-03-12T23:26:54;6.50;99.90
20594;DHT22;10455;48.732;10.266;2023-03-12T23:31:57;6.40;99.90
20594;DHT22;10455;48.732;10.266;2023-03-12T23:37:00;6.20;99.90
20594;DHT22;10455;48.732;10.266;2023-03-12T23:42:03;6.10;99.90
20594;DHT22;10455;48.732;10.266;2023-03-12T23:47:05;6.00;99.90
20594;DHT22;10455;48.732;10.266;2023-03-12T23:52:08;6.00;99.90
20594;DHT22;10455;48.732;10.266;2023-03-12T23:57:10;5.90;99.90
